Terminal Aerodrome Forecast
Issued by NWS Cleveland, OH

Home | Current Version | Previous Version | Text Only | Print | Product List | Glossary Off
Versions: 1 2 3 4 5 6 7 8 9 10 11 12 13 14 15 16 17 18 19 20 21 22

000
FTUS41 KCLE 072337
TAFERI
TAF
KERI 072337Z 0800/0824 23008KT P6SM BKN120
     FM080900 23012G20KT P6SM OVC070
     FM081600 25015G25KT P6SM VCSH OVC050
     FM081900 26015G30KT 5SM -SHSN OVC035
     FM082200 27015G25KT 2SM -SHSN OVC015=

USA.gov is the U.S. government's official web portal to all federal, state and local government web resources and services.